createdAt,value
2023-03-17T00:00:02.578Z,4
2023-03-17T00:01:01.846Z,4
2023-03-17T00:02:01.156Z,4
2023-03-17T00:03:01.176Z,4
2023-03-17T00:04:01.253Z,4
2023-03-17T00:05:01.151Z,4
2023-03-17T00:06:01.488Z,4
2023-03-17T00:07:01.179Z,4
2023-03-17T00:08:01.075Z,4
2023-03-17T00:09:01.091Z,4
2023-03-17T00:10:01.094Z,4
2023-03-17T00:11:01.542Z,4
2023-03-17T00:12:01.116Z,4
2023-03-17T00:13:01.130Z,4
2023-03-17T00:14:01.104Z,4
2023-03-17T00:15:01.131Z,4
2023-03-17T00:16:01.224Z,4
2023-03-17T00:17:01.125Z,4
2023-03-17T00:18:01.553Z,3.9
2023-03-17T00:19:00.833Z,3.9
2023-03-17T00:20:00.532Z,3.9
2023-03-17T00:21:00.123Z,3.9
2023-03-17T00:21:59.820Z,3.9
2023-03-17T00:23:01.799Z,3.9
2023-03-17T00:24:01.756Z,3.9
2023-03-17T00:25:01.475Z,3.9
2023-03-17T00:26:01.129Z,3.8
2023-03-17T00:27:01.308Z,3.9
2023-03-17T00:28:01.081Z,3.9
2023-03-17T00:29:01.062Z,3.9
2023-03-17T00:30:01.110Z,3.9
2023-03-17T00:31:01.321Z,3.8
2023-03-17T00:32:01.869Z,3.9
2023-03-17T00:33:02.506Z,3.9
2023-03-17T00:34:01.514Z,3.8
2023-03-17T00:35:01.352Z,3.8
2023-03-17T00:36:02.140Z,3.8
2023-03-17T00:37:01.145Z,3.8
2023-03-17T00:38:01.185Z,3.8
2023-03-17T00:39:01.070Z,3.8
2023-03-17T00:40:01.081Z,3.8
2023-03-17T00:41:01.107Z,3.8
2023-03-17T00:42:01.380Z,3.8
2023-03-17T00:43:01.463Z,3.8
2023-03-17T00:44:04.140Z,3.8
2023-03-17T00:45:01.377Z,3.8
2023-03-17T00:46:01.062Z,3.8
2023-03-17T00:47:01.217Z,3.7
2023-03-17T00:48:01.120Z,3.7
2023-03-17T00:49:01.537Z,3.7
2023-03-17T00:50:02.559Z,3.7
2023-03-17T00:51:01.158Z,3.7
2023-03-17T00:52:01.146Z,3.6
2023-03-17T00:53:01.158Z,3.6
2023-03-17T00:54:01.160Z,3.6
2023-03-17T00:55:00.848Z,3.6
2023-03-17T00:56:00.634Z,3.6
2023-03-17T00:57:00.348Z,3.6
2023-03-17T00:58:00.074Z,3.6
2023-03-17T00:58:59.762Z,3.6
2023-03-17T01:00:02.535Z,3.6
2023-03-17T01:01:01.605Z,3.6
2023-03-17T01:02:01.257Z,3.6
2023-03-17T01:03:01.494Z,3.6
2023-03-17T01:04:01.223Z,3.6
2023-03-17T01:05:06.418Z,3.6
2023-03-17T01:06:03.646Z,3.6
2023-03-17T01:07:01.141Z,3.6
2023-03-17T01:08:01.158Z,3.6
2023-03-17T01:09:01.809Z,3.6
2023-03-17T01:10:01.179Z,3.6
2023-03-17T01:11:06.270Z,3.6
2023-03-17T01:12:01.469Z,3.6
2023-03-17T01:13:01.321Z,3.6
2023-03-17T01:14:02.232Z,3.6
2023-03-17T01:15:02.259Z,3.6
2023-03-17T01:16:08.450Z,3.6
2023-03-17T01:17:01.101Z,3.6
2023-03-17T01:18:01.104Z,3.6
2023-03-17T01:19:01.290Z,3.6
2023-03-17T01:20:01.499Z,3.6
2023-03-17T01:21:12.692Z,3.5
2023-03-17T01:22:01.133Z,3.5
2023-03-17T01:23:01.137Z,3.5
2023-03-17T01:24:01.155Z,3.5
2023-03-17T01:25:01.154Z,3.5
2023-03-17T01:26:15.662Z,3.5
2023-03-17T01:27:01.534Z,3.5
2023-03-17T01:28:02.145Z,3.5
2023-03-17T01:29:01.108Z,3.5
2023-03-17T01:30:01.066Z,3.5
2023-03-17T01:31:01.082Z,3.5
2023-03-17T01:32:01.101Z,3.5
2023-03-17T01:33:01.103Z,3.5
2023-03-17T01:34:01.165Z,3.5
2023-03-17T01:35:01.089Z,3.5
2023-03-17T01:36:01.173Z,3.4
2023-03-17T01:37:01.124Z,3.4
2023-03-17T01:38:01.361Z,3.4
2023-03-17T01:39:01.149Z,3.4
2023-03-17T01:40:01.896Z,3.4
2023-03-17T01:41:01.167Z,3.4
2023-03-17T01:42:01.176Z,3.4
2023-03-17T01:43:01.181Z,3.4
2023-03-17T01:44:01.393Z,3.4
2023-03-17T01:45:01.370Z,3.4
2023-03-17T01:46:01.926Z,3.3
2023-03-17T01:47:01.143Z,3.3
2023-03-17T01:48:01.081Z,3.3
2023-03-17T01:49:01.762Z,3.3
2023-03-17T01:50:02.224Z,3.4
2023-03-17T01:51:01.708Z,3.4
2023-03-17T01:52:00.618Z,3.3
2023-03-17T01:53:00.291Z,3.3
2023-03-17T01:53:59.982Z,3.4
2023-03-17T01:54:59.810Z,3.4
2023-03-17T01:56:01.853Z,3.4
2023-03-17T01:57:01.156Z,3.3
2023-03-17T01:58:01.210Z,3.4
2023-03-17T01:59:01.072Z,3.3
2023-03-17T02:00:01.078Z,3.3
2023-03-17T02:01:01.311Z,3.4
2023-03-17T02:02:01.346Z,3.3
2023-03-17T02:03:01.475Z,3.4
2023-03-17T02:04:01.276Z,3.4
2023-03-17T02:05:01.412Z,3.4
2023-03-17T02:06:01.499Z,3.4
2023-03-17T02:07:01.105Z,3.3
2023-03-17T02:08:01.170Z,3.3
2023-03-17T02:09:01.127Z,3.3
2023-03-17T02:10:01.124Z,3.3
2023-03-17T02:11:01.177Z,3.4
2023-03-17T02:12:01.196Z,3.4
2023-03-17T02:13:01.549Z,3.4
2023-03-17T02:14:02.241Z,3.4
2023-03-17T02:15:01.397Z,3.4
2023-03-17T02:16:01.209Z,3.4
2023-03-17T02:17:01.205Z,3.4
2023-03-17T02:18:01.081Z,3.4
2023-03-17T02:19:01.082Z,3.4
2023-03-17T02:20:01.095Z,3.4
2023-03-17T02:21:01.098Z,3.4
2023-03-17T02:22:01.208Z,3.4
2023-03-17T02:23:01.505Z,3.4
2023-03-17T02:24:01.233Z,3.4
2023-03-17T02:25:08.027Z,3.4
2023-03-17T02:26:01.036Z,3.4
2023-03-17T02:27:01.057Z,3.4
2023-03-17T02:28:01.143Z,3.4
2023-03-17T02:29:01.135Z,3.4
2023-03-17T02:30:01.171Z,3.4
2023-03-17T02:31:01.216Z,3.5
2023-03-17T02:32:01.180Z,3.4
2023-03-17T02:33:01.236Z,3.4
2023-03-17T02:34:01.471Z,3.4
2023-03-17T02:35:02.065Z,3.4
2023-03-17T02:36:01.167Z,3.4
2023-03-17T02:37:01.063Z,3.4
2023-03-17T02:38:01.137Z,3.4
2023-03-17T02:39:01.105Z,3.4
2023-03-17T02:40:01.125Z,3.4
2023-03-17T02:41:01.118Z,3.4
2023-03-17T02:42:01.262Z,3.4
2023-03-17T02:43:01.503Z,3.4
2023-03-17T02:44:02.209Z,3.4
2023-03-17T02:45:02.330Z,3.4
2023-03-17T02:46:02.349Z,3.4
2023-03-17T02:47:01.178Z,3.4
2023-03-17T02:48:01.206Z,3.4
2023-03-17T02:49:01.196Z,3.4
2023-03-17T02:50:01.094Z,3.4
2023-03-17T02:51:00.778Z,3.4
2023-03-17T02:52:01.394Z,3.4
2023-03-17T02:53:01.099Z,3.5
2023-03-17T02:54:01.106Z,3.5
2023-03-17T02:55:01.106Z,3.4
2023-03-17T02:56:01.116Z,3.4
2023-03-17T02:57:04.143Z,3.4
2023-03-17T02:58:02.443Z,3.4
2023-03-17T02:59:01.130Z,3.4
2023-03-17T03:00:01.214Z,3.4
2023-03-17T03:01:01.612Z,3.4
2023-03-17T03:02:07.026Z,3.5
2023-03-17T03:03:01.155Z,3.4
2023-03-17T03:04:01.069Z,3.4
2023-03-17T03:05:01.110Z,3.5
2023-03-17T03:06:03.091Z,3.5
2023-03-17T03:07:09.964Z,3.5
2023-03-17T03:08:02.428Z,3.5
2023-03-17T03:09:01.490Z,3.5
2023-03-17T03:10:01.143Z,3.5
2023-03-17T03:11:01.098Z,3.5
2023-03-17T03:12:13.943Z,3.5
2023-03-17T03:13:01.425Z,3.5
2023-03-17T03:14:01.134Z,3.5
2023-03-17T03:15:01.351Z,3.5
2023-03-17T03:16:01.636Z,3.5
2023-03-17T03:17:01.164Z,3.5
2023-03-17T03:18:01.173Z,3.5
2023-03-17T03:19:01.148Z,3.5
2023-03-17T03:20:01.169Z,3.5
2023-03-17T03:21:01.183Z,3.5
2023-03-17T03:22:01.174Z,3.5
2023-03-17T03:23:02.316Z,3.6
2023-03-17T03:24:01.088Z,3.6
2023-03-17T03:25:01.085Z,3.5
2023-03-17T03:26:01.144Z,3.6
2023-03-17T03:27:01.066Z,3.6
2023-03-17T03:28:01.116Z,3.6
2023-03-17T03:29:01.073Z,3.6
2023-03-17T03:30:01.112Z,3.6
2023-03-17T03:31:01.582Z,3.6
2023-03-17T03:32:01.248Z,3.6
2023-03-17T03:33:01.167Z,3.6
2023-03-17T03:34:01.139Z,3.6
2023-03-17T03:35:01.147Z,3.6
2023-03-17T03:36:01.199Z,3.6
2023-03-17T03:37:01.142Z,3.7
2023-03-17T03:38:01.612Z,3.7
2023-03-17T03:39:01.609Z,3.7
2023-03-17T03:40:01.674Z,3.7
2023-03-17T03:41:01.288Z,3.7
2023-03-17T03:42:01.109Z,3.8
2023-03-17T03:43:07.535Z,3.7
2023-03-17T03:44:01.821Z,3.7
2023-03-17T03:45:01.121Z,3.8
2023-03-17T03:46:02.036Z,3.8
2023-03-17T03:47:01.850Z,3.8
2023-03-17T03:48:01.148Z,3.8
2023-03-17T03:49:01.133Z,3.8
2023-03-17T03:50:01.142Z,3.8
2023-03-17T03:51:01.144Z,3.8
2023-03-17T03:52:01.619Z,3.9
2023-03-17T03:53:01.158Z,3.8
2023-03-17T03:54:01.473Z,3.9
2023-03-17T03:55:01.064Z,3.9
2023-03-17T03:56:01.082Z,3.9
2023-03-17T03:57:01.100Z,3.9
2023-03-17T03:58:01.094Z,3.9
2023-03-17T03:59:01.113Z,3.9
2023-03-17T04:00:01.135Z,3.9
2023-03-17T04:01:01.118Z,3.9
2023-03-17T04:02:01.417Z,4
2023-03-17T04:03:01.205Z,4
2023-03-17T04:04:01.163Z,4
2023-03-17T04:05:01.265Z,4
2023-03-17T04:06:01.222Z,4
2023-03-17T04:07:01.173Z,4
2023-03-17T04:08:00.846Z,4
2023-03-17T04:09:00.842Z,4
2023-03-17T04:10:00.909Z,4
2023-03-17T04:11:00.662Z,4
2023-03-17T04:12:00.366Z,4
2023-03-17T04:13:00.033Z,4
2023-03-17T04:13:59.743Z,4
2023-03-17T04:15:01.758Z,4
2023-03-17T04:16:01.868Z,4
2023-03-17T04:17:01.072Z,4
2023-03-17T04:18:01.352Z,4
2023-03-17T04:19:01.863Z,4
2023-03-17T04:20:02.783Z,4
2023-03-17T04:21:01.144Z,4
2023-03-17T04:22:01.156Z,4
2023-03-17T04:23:01.162Z,4
2023-03-17T04:24:01.156Z,4
2023-03-17T04:25:01.159Z,4
2023-03-17T04:26:01.064Z,4
2023-03-17T04:27:01.219Z,4
2023-03-17T04:28:01.508Z,3.9
2023-03-17T04:29:01.738Z,4
2023-03-17T04:30:01.451Z,4
2023-03-17T04:31:01.096Z,4
2023-03-17T04:32:01.109Z,3.9
2023-03-17T04:33:04.498Z,3.9
2023-03-17T04:34:01.131Z,3.9
2023-03-17T04:35:01.070Z,3.9
2023-03-17T04:36:01.353Z,3.9
2023-03-17T04:37:01.175Z,3.9
2023-03-17T04:38:06.276Z,3.9
2023-03-17T04:39:01.160Z,3.9
2023-03-17T04:40:01.165Z,3.9
2023-03-17T04:41:01.567Z,3.9
2023-03-17T04:42:01.189Z,3.9
2023-03-17T04:43:10.379Z,3.9
2023-03-17T04:44:01.411Z,3.9
2023-03-17T04:45:01.218Z,3.9
2023-03-17T04:46:01.271Z,3.9
2023-03-17T04:47:01.883Z,3.9
2023-03-17T04:48:12.669Z,3.9
2023-03-17T04:49:01.112Z,3.9
2023-03-17T04:50:01.119Z,3.9
2023-03-17T04:51:01.181Z,3.9
2023-03-17T04:52:01.891Z,3.9
2023-03-17T04:53:14.992Z,3.9
2023-03-17T04:54:01.157Z,3.9
2023-03-17T04:55:01.252Z,3.9
2023-03-17T04:56:01.300Z,3.9
2023-03-17T04:57:01.326Z,3.9
2023-03-17T04:58:29.876Z,3.9
2023-03-17T04:59:01.148Z,3.9
2023-03-17T05:00:01.956Z,3.9
2023-03-17T05:01:01.140Z,3.9
2023-03-17T05:02:01.337Z,3.9
2023-03-17T05:03:01.911Z,3.9
2023-03-17T05:04:02.676Z,3.9
2023-03-17T05:05:01.499Z,3.9
2023-03-17T05:06:01.513Z,3.9
2023-03-17T05:07:01.243Z,3.9
2023-03-17T05:08:01.138Z,3.9
2023-03-17T05:09:01.145Z,3.9
2023-03-17T05:10:01.132Z,3.9
2023-03-17T05:11:01.162Z,3.9
2023-03-17T05:12:01.151Z,3.9
2023-03-17T05:13:01.042Z,3.9
2023-03-17T05:14:01.268Z,3.9
2023-03-17T05:15:01.848Z,3.9
2023-03-17T05:16:02.168Z,3.9
2023-03-17T05:17:01.896Z,3.9
2023-03-17T05:18:03.909Z,3.9
2023-03-17T05:19:01.110Z,3.9
2023-03-17T05:20:01.308Z,3.9
2023-03-17T05:21:00.900Z,3.9
2023-03-17T05:22:01.113Z,3.9
2023-03-17T05:23:01.110Z,3.9
2023-03-17T05:24:01.529Z,3.9
2023-03-17T05:25:01.122Z,3.9
2023-03-17T05:26:01.149Z,3.9
2023-03-17T05:27:01.438Z,3.9
2023-03-17T05:28:01.147Z,3.9
2023-03-17T05:29:01.145Z,3.9
2023-03-17T05:30:01.215Z,4
2023-03-17T05:31:02.180Z,4
2023-03-17T05:32:01.760Z,4
2023-03-17T05:33:01.122Z,4
2023-03-17T05:34:04.161Z,4
2023-03-17T05:35:01.060Z,4
2023-03-17T05:36:01.131Z,4
2023-03-17T05:37:01.111Z,4.1
2023-03-17T05:38:01.137Z,4.1
2023-03-17T05:39:01.215Z,4.1
2023-03-17T05:40:01.115Z,4.1
2023-03-17T05:41:00.809Z,4.1
2023-03-17T05:42:00.405Z,4.1
2023-03-17T05:43:00.011Z,4.1
2023-03-17T05:43:59.641Z,4.1
2023-03-17T05:45:01.344Z,4.1
2023-03-17T05:46:02.629Z,4.1
2023-03-17T05:47:01.162Z,4.1
2023-03-17T05:48:01.063Z,4.1
2023-03-17T05:49:01.070Z,4.1
2023-03-17T05:50:00.767Z,4.1
2023-03-17T05:51:00.644Z,4.1
2023-03-17T05:52:00.353Z,4.2
2023-03-17T05:53:00.073Z,4.2
2023-03-17T05:53:59.843Z,4.2
2023-03-17T05:55:01.809Z,4.2
2023-03-17T05:56:02.355Z,4.2
2023-03-17T05:57:01.108Z,4.2
2023-03-17T05:58:01.179Z,4.2
2023-03-17T05:59:01.138Z,4.3
2023-03-17T06:00:01.155Z,4.3
2023-03-17T06:01:00.941Z,4.3
2023-03-17T06:02:01.109Z,4.3
2023-03-17T06:03:01.169Z,4.3
2023-03-17T06:04:01.459Z,4.3
2023-03-17T06:05:08.029Z,4.3
2023-03-17T06:06:01.085Z,4.4
2023-03-17T06:07:01.078Z,4.4
2023-03-17T06:08:01.108Z,4.4
2023-03-17T06:09:01.098Z,4.5
2023-03-17T06:10:01.092Z,4.5
2023-03-17T06:11:01.115Z,4.5
2023-03-17T06:12:01.071Z,4.5
2023-03-17T06:13:03.364Z,4.5
2023-03-17T06:14:01.553Z,4.5
2023-03-17T06:15:01.143Z,4.5
2023-03-17T06:16:01.156Z,4.6
2023-03-17T06:17:01.147Z,4.6
2023-03-17T06:18:01.814Z,4.6
2023-03-17T06:19:04.790Z,4.6
2023-03-17T06:20:01.682Z,4.6
2023-03-17T06:21:01.498Z,4.7
2023-03-17T06:22:01.184Z,4.7
2023-03-17T06:23:04.757Z,4.8
2023-03-17T06:24:06.257Z,4.8
2023-03-17T06:25:01.476Z,4.8
2023-03-17T06:26:01.129Z,4.8
2023-03-17T06:27:01.069Z,4.8
2023-03-17T06:28:01.132Z,4.8
2023-03-17T06:29:09.424Z,4.9
2023-03-17T06:30:01.140Z,4.9
2023-03-17T06:31:01.212Z,4.9
2023-03-17T06:32:18.843Z,5
2023-03-17T06:33:01.596Z,5
2023-03-17T06:34:12.010Z,5
2023-03-17T06:35:02.206Z,5
2023-03-17T06:36:01.240Z,5
2023-03-17T06:37:01.063Z,5
2023-03-17T06:38:01.154Z,5.1
2023-03-17T06:39:15.189Z,5.1
2023-03-17T06:40:01.305Z,5.1
2023-03-17T06:41:01.259Z,5.1
2023-03-17T06:42:01.214Z,5.1
2023-03-17T06:43:01.242Z,5.1
2023-03-17T06:44:01.102Z,5.2
2023-03-17T06:45:01.114Z,5.2
2023-03-17T06:46:01.129Z,5.2
2023-03-17T06:47:01.122Z,5.2
2023-03-17T06:48:01.137Z,5.3
2023-03-17T06:49:01.139Z,5.3
2023-03-17T06:50:01.557Z,5.3
2023-03-17T06:51:01.054Z,5.3
2023-03-17T06:52:01.070Z,5.3
2023-03-17T06:53:01.077Z,5.3
2023-03-17T06:54:01.066Z,5.3
2023-03-17T06:55:01.115Z,5.3
2023-03-17T06:56:01.876Z,5.3
2023-03-17T06:57:01.100Z,5.3
2023-03-17T06:58:01.464Z,5.4
2023-03-17T06:59:01.634Z,5.4
2023-03-17T07:00:01.125Z,5.4
2023-03-17T07:01:00.929Z,5.4
2023-03-17T07:02:01.170Z,5.4
2023-03-17T07:03:01.138Z,5.5
2023-03-17T07:04:01.140Z,5.4
2023-03-17T07:05:01.254Z,5.5
2023-03-17T07:06:01.152Z,5.5
2023-03-17T07:07:01.554Z,5.5
2023-03-17T07:08:01.290Z,5.5
2023-03-17T07:09:02.501Z,5.5
2023-03-17T07:10:01.060Z,5.5
2023-03-17T07:11:01.050Z,5.5
2023-03-17T07:12:01.095Z,5.5
2023-03-17T07:13:01.115Z,5.6
2023-03-17T07:14:01.109Z,5.5
2023-03-17T07:15:01.175Z,5.6
2023-03-17T07:16:01.484Z,5.6
2023-03-17T07:17:01.087Z,5.6
2023-03-17T07:18:01.096Z,5.6
2023-03-17T07:19:01.156Z,5.6
2023-03-17T07:20:01.441Z,5.6
2023-03-17T07:21:01.451Z,5.6
2023-03-17T07:22:01.171Z,5.6
2023-03-17T07:23:02.018Z,5.6
2023-03-17T07:24:01.169Z,5.6
2023-03-17T07:25:01.507Z,5.7
2023-03-17T07:26:01.210Z,5.7
2023-03-17T07:27:01.092Z,5.8
2023-03-17T07:28:01.109Z,5.8
2023-03-17T07:29:01.054Z,5.8
2023-03-17T07:30:01.053Z,5.8
2023-03-17T07:31:01.178Z,5.8
2023-03-17T07:32:01.105Z,5.9
2023-03-17T07:33:01.184Z,6
2023-03-17T07:34:01.125Z,6
2023-03-17T07:35:02.150Z,6
2023-03-17T07:36:01.928Z,6.1
2023-03-17T07:37:01.567Z,6.1
2023-03-17T07:38:01.185Z,6.1
2023-03-17T07:39:01.793Z,6.1
2023-03-17T07:40:01.227Z,6.2
2023-03-17T07:41:00.996Z,6.2
2023-03-17T07:42:01.064Z,6.3
2023-03-17T07:43:01.549Z,6.3
2023-03-17T07:44:00.768Z,6.3
2023-03-17T07:45:00.396Z,6.3
2023-03-17T07:46:00.297Z,6.4
2023-03-17T07:46:59.982Z,6.4
2023-03-17T07:47:59.667Z,6.5
2023-03-17T07:49:01.302Z,6.5
2023-03-17T07:50:01.423Z,6.5
2023-03-17T07:51:02.056Z,6.5
2023-03-17T07:52:01.943Z,6.5
2023-03-17T07:53:01.144Z,6.6
2023-03-17T07:54:01.143Z,6.6
2023-03-17T07:55:01.159Z,6.7
2023-03-17T07:56:01.183Z,6.8
2023-03-17T07:57:01.168Z,6.8
2023-03-17T07:58:01.288Z,6.8
2023-03-17T07:59:01.088Z,6.9
2023-03-17T08:00:01.183Z,7
2023-03-17T08:01:00.990Z,7
2023-03-17T08:02:01.853Z,7
2023-03-17T08:03:09.692Z,7
2023-03-17T08:04:01.138Z,7
2023-03-17T08:05:03.424Z,7
2023-03-17T08:06:01.104Z,7
2023-03-17T08:07:01.263Z,7
2023-03-17T08:08:01.797Z,7
2023-03-17T08:09:01.996Z,7
2023-03-17T08:10:06.611Z,7
2023-03-17T08:11:01.149Z,7
2023-03-17T08:12:01.172Z,7
2023-03-17T08:13:01.494Z,7
2023-03-17T08:14:01.072Z,7
2023-03-17T08:15:10.318Z,7
2023-03-17T08:16:01.458Z,7
2023-03-17T08:17:01.591Z,7
2023-03-17T08:18:01.068Z,7
2023-03-17T08:19:01.166Z,7
2023-03-17T08:20:13.135Z,7
2023-03-17T08:21:00.914Z,7
2023-03-17T08:22:01.108Z,6.9
2023-03-17T08:23:01.132Z,7
2023-03-17T08:24:01.130Z,6.9
2023-03-17T08:25:15.358Z,6.9
2023-03-17T08:26:01.911Z,7
2023-03-17T08:27:01.527Z,7
2023-03-17T08:28:01.553Z,7
2023-03-17T08:29:02.335Z,7
2023-03-17T08:30:16.814Z,7
2023-03-17T08:31:01.193Z,7
2023-03-17T08:32:00.887Z,7.1
2023-03-17T08:33:01.398Z,7.1
2023-03-17T08:34:02.105Z,7.1
2023-03-17T08:35:02.123Z,7.1
2023-03-17T08:36:01.166Z,7.2
2023-03-17T08:37:01.195Z,7.2
2023-03-17T08:38:01.257Z,7.3
2023-03-17T08:39:01.288Z,7.3
2023-03-17T08:40:01.546Z,7.3
2023-03-17T08:41:01.133Z,7.4
2023-03-17T08:42:01.128Z,7.5
2023-03-17T08:43:01.060Z,7.5
2023-03-17T08:44:01.163Z,7.5
2023-03-17T08:45:01.157Z,7.5
2023-03-17T08:46:01.245Z,7.5
2023-03-17T08:47:01.952Z,7.6
2023-03-17T08:48:01.584Z,7.6
2023-03-17T08:49:01.155Z,7.6
2023-03-17T08:50:03.941Z,7.7
2023-03-17T08:51:01.911Z,7.7
2023-03-17T08:52:01.114Z,7.8
2023-03-17T08:53:01.108Z,7.8
2023-03-17T08:54:01.115Z,7.8
2023-03-17T08:55:01.119Z,7.8
2023-03-17T08:56:01.147Z,7.8
2023-03-17T08:57:01.131Z,7.8
2023-03-17T08:58:01.134Z,7.9
2023-03-17T08:59:01.152Z,8
2023-03-17T09:00:01.181Z,8
2023-03-17T09:01:01.104Z,8
2023-03-17T09:02:01.181Z,8
2023-03-17T09:03:01.177Z,8
2023-03-17T09:04:01.922Z,8
2023-03-17T09:05:01.071Z,8.1
2023-03-17T09:06:01.095Z,8.1
2023-03-17T09:07:04.087Z,8.1
2023-03-17T09:08:01.268Z,8.1
2023-03-17T09:09:01.481Z,8.1
2023-03-17T09:10:01.219Z,8.1
2023-03-17T09:11:01.128Z,8.1
2023-03-17T09:12:01.062Z,8.2
2023-03-17T09:13:01.476Z,8.2
2023-03-17T09:14:01.149Z,8.3
2023-03-17T09:15:01.175Z,8.3
2023-03-17T09:16:01.173Z,8.4
2023-03-17T09:17:02.993Z,8.5
2023-03-17T09:18:01.480Z,8.5
2023-03-17T09:19:01.565Z,8.5
2023-03-17T09:20:01.223Z,8.5
2023-03-17T09:21:00.980Z,8.5
2023-03-17T09:22:02.909Z,8.5
2023-03-17T09:23:01.059Z,8.6
2023-03-17T09:24:02.664Z,8.6
2023-03-17T09:25:01.123Z,8.6
2023-03-17T09:26:01.523Z,8.6
2023-03-17T09:27:01.359Z,8.6
2023-03-17T09:28:02.184Z,8.6
2023-03-17T09:29:16.602Z,8.7
2023-03-17T09:30:04.048Z,8.7
2023-03-17T09:31:01.571Z,8.8
2023-03-17T09:32:01.156Z,8.8
2023-03-17T09:33:01.236Z,8.8
2023-03-17T09:34:01.323Z,8.8
2023-03-17T09:35:01.325Z,8.8
2023-03-17T09:36:02.324Z,8.8
2023-03-17T09:37:01.881Z,8.9
2023-03-17T09:38:01.087Z,8.9
2023-03-17T09:39:01.085Z,9
2023-03-17T09:40:01.108Z,9
2023-03-17T09:41:01.137Z,9.1
2023-03-17T09:42:00.898Z,9.1
2023-03-17T09:43:01.111Z,9.1
2023-03-17T09:44:01.121Z,9.1
2023-03-17T09:45:01.134Z,9.1
2023-03-17T09:46:01.127Z,9.1
2023-03-17T09:47:01.140Z,9.2
2023-03-17T09:48:01.136Z,9.2
2023-03-17T09:49:01.158Z,9.2
2023-03-17T09:50:01.182Z,9.3
2023-03-17T09:51:00.916Z,9.3
2023-03-17T09:52:01.171Z,9.3
2023-03-17T09:53:03.853Z,9.4
2023-03-17T09:54:01.769Z,9.4
2023-03-17T09:55:01.079Z,9.4
2023-03-17T09:56:04.249Z,9.5
2023-03-17T09:57:01.061Z,9.5
2023-03-17T09:58:01.158Z,9.6
2023-03-17T09:59:01.168Z,9.6
2023-03-17T10:00:01.117Z,9.7
2023-03-17T10:01:06.678Z,9.8
2023-03-17T10:02:00.641Z,9.8
2023-03-17T10:03:00.329Z,9.8
2023-03-17T10:03:59.902Z,9.8
2023-03-17T10:04:59.583Z,9.9
2023-03-17T10:06:12.694Z,9.8
2023-03-17T10:07:01.158Z,9.8
2023-03-17T10:08:01.915Z,9.9
2023-03-17T10:09:01.787Z,9.9
2023-03-17T10:10:01.087Z,9.9
2023-03-17T10:11:11.785Z,10
2023-03-17T10:12:02.490Z,10.1
2023-03-17T10:13:01.739Z,10.1
2023-03-17T10:14:02.344Z,10.1
2023-03-17T10:15:01.874Z,10.1
2023-03-17T10:16:15.679Z,10.2
2023-03-17T10:17:01.409Z,10.2
2023-03-17T10:18:02.039Z,10.2
2023-03-17T10:19:02.470Z,10.2
2023-03-17T10:20:01.256Z,10.2
2023-03-17T10:21:01.157Z,10.2
2023-03-17T10:22:01.169Z,10.2
2023-03-17T10:23:01.460Z,10.2
2023-03-17T10:24:01.110Z,10.2
2023-03-17T10:25:03.465Z,10.2
2023-03-17T10:26:01.119Z,10.2
2023-03-17T10:27:01.172Z,10.3
2023-03-17T10:28:01.197Z,10.3
2023-03-17T10:29:01.188Z,10.3
2023-03-17T10:30:01.238Z,10.3
2023-03-17T10:31:01.006Z,10.3
2023-03-17T10:32:00.851Z,10.3
2023-03-17T10:33:01.226Z,10.3
2023-03-17T10:34:01.164Z,10.3
2023-03-17T10:35:01.152Z,10.3
2023-03-17T10:36:01.320Z,10.3
2023-03-17T10:37:01.179Z,10.3
2023-03-17T10:38:13.745Z,10.4
2023-03-17T10:39:01.172Z,10.4
2023-03-17T10:40:01.079Z,10.5
2023-03-17T10:41:01.073Z,10.5
2023-03-17T10:42:00.756Z,10.5
2023-03-17T10:43:00.353Z,10.6
2023-03-17T10:43:59.966Z,10.6
2023-03-17T10:44:59.953Z,10.6
2023-03-17T10:45:59.663Z,10.6
2023-03-17T10:47:02.351Z,10.6
2023-03-17T10:48:01.793Z,10.6
2023-03-17T10:49:02.160Z,10.7
2023-03-17T10:50:01.120Z,10.8
2023-03-17T10:51:01.128Z,10.8
2023-03-17T10:52:01.145Z,10.9
2023-03-17T10:53:01.170Z,10.9
2023-03-17T10:54:01.589Z,10.8
2023-03-17T10:55:00.843Z,10.8
2023-03-17T10:56:00.546Z,10.9
2023-03-17T10:57:00.242Z,10.9
2023-03-17T10:57:59.944Z,11
2023-03-17T10:58:59.640Z,11
2023-03-17T11:00:02.317Z,11.1
2023-03-17T11:01:01.471Z,11.1
2023-03-17T11:02:00.801Z,11.1
2023-03-17T11:03:00.514Z,11.2
2023-03-17T11:04:00.512Z,11.2
2023-03-17T11:05:00.489Z,11.2
2023-03-17T11:06:00.198Z,11.2
2023-03-17T11:06:59.894Z,11.2
2023-03-17T11:07:59.601Z,11.3
2023-03-17T11:09:01.819Z,11.3
2023-03-17T11:10:02.056Z,11.4
2023-03-17T11:11:01.552Z,11.4
2023-03-17T11:12:01.213Z,11.4
2023-03-17T11:13:02.098Z,11.4
2023-03-17T11:14:02.004Z,11.4
2023-03-17T11:15:01.334Z,11.5
2023-03-17T11:16:01.352Z,11.5
2023-03-17T11:17:01.089Z,11.5
2023-03-17T11:18:01.145Z,11.5
2023-03-17T11:19:01.074Z,11.5
2023-03-17T11:20:01.048Z,11.5
2023-03-17T11:21:01.065Z,11.5
2023-03-17T11:22:00.718Z,11.5
2023-03-17T11:23:00.501Z,11.5
2023-03-17T11:24:00.115Z,11.5
2023-03-17T11:24:59.796Z,11.5
2023-03-17T11:26:01.465Z,11.6
2023-03-17T11:27:01.179Z,11.6
2023-03-17T11:28:01.180Z,11.6
2023-03-17T11:29:01.183Z,11.7
2023-03-17T11:30:01.900Z,11.7
2023-03-17T11:31:01.932Z,11.7
2023-03-17T11:32:01.758Z,11.6
2023-03-17T11:33:01.581Z,11.6
2023-03-17T11:34:02.169Z,11.6
2023-03-17T11:35:01.798Z,11.6
2023-03-17T11:36:01.149Z,11.7
2023-03-17T11:37:01.110Z,11.7
2023-03-17T11:38:01.165Z,11.8
2023-03-17T11:39:01.483Z,11.8
2023-03-17T11:40:01.172Z,11.8
2023-03-17T11:41:01.160Z,11.8
2023-03-17T11:42:01.113Z,11.8
2023-03-17T11:43:01.151Z,11.8
2023-03-17T11:44:01.180Z,11.9
2023-03-17T11:45:01.840Z,11.9
2023-03-17T11:46:01.115Z,11.9
2023-03-17T11:47:05.059Z,11.9
2023-03-17T11:48:01.194Z,11.9
2023-03-17T11:49:01.497Z,12
2023-03-17T11:50:02.220Z,12
2023-03-17T11:51:01.111Z,12
2023-03-17T11:52:08.682Z,12
2023-03-17T11:53:01.140Z,12
2023-03-17T11:54:01.820Z,12
2023-03-17T11:55:00.900Z,12
2023-03-17T11:56:01.129Z,12
2023-03-17T11:57:11.342Z,12.1
2023-03-17T11:58:01.531Z,12.1
2023-03-17T11:59:02.106Z,12.1
2023-03-17T12:00:01.736Z,12.1
2023-03-17T12:01:02.001Z,12.1
2023-03-17T12:02:14.438Z,12.2
2023-03-17T12:03:01.733Z,12.3
2023-03-17T12:04:01.726Z,12.3
2023-03-17T12:05:01.484Z,12.3
2023-03-17T12:06:01.099Z,12.4
2023-03-17T12:07:01.100Z,12.4
2023-03-17T12:08:01.171Z,12.5
2023-03-17T12:09:01.116Z,12.5
2023-03-17T12:10:01.128Z,12.5
2023-03-17T12:11:01.091Z,12.5
2023-03-17T12:12:01.120Z,12.5
2023-03-17T12:13:01.484Z,12.4
2023-03-17T12:14:04.616Z,12.4
2023-03-17T12:15:01.166Z,12.4
2023-03-17T12:16:02.135Z,12.4
2023-03-17T12:17:01.166Z,12.3
2023-03-17T12:18:01.066Z,12.4
2023-03-17T12:19:01.077Z,12.3
2023-03-17T12:20:01.196Z,12.4
2023-03-17T12:21:01.118Z,12.4
2023-03-17T12:22:01.146Z,12.4
2023-03-17T12:23:01.797Z,12.4
2023-03-17T12:24:01.096Z,12.4
2023-03-17T12:25:01.186Z,12.4
2023-03-17T12:26:02.558Z,12.5
2023-03-17T12:27:01.398Z,12.5
2023-03-17T12:28:02.560Z,12.6
2023-03-17T12:29:01.284Z,12.6
2023-03-17T12:30:01.676Z,12.6
2023-03-17T12:31:02.461Z,12.6
2023-03-17T12:32:01.151Z,12.6
2023-03-17T12:33:01.225Z,12.6
2023-03-17T12:34:01.050Z,12.6
2023-03-17T12:35:01.090Z,12.6
2023-03-17T12:36:01.492Z,12.6
2023-03-17T12:37:01.486Z,12.6
2023-03-17T12:38:01.261Z,12.6
2023-03-17T12:39:01.097Z,12.6
2023-03-17T12:40:01.122Z,12.6
2023-03-17T12:41:01.319Z,12.6
2023-03-17T12:42:02.034Z,12.7
2023-03-17T12:43:02.232Z,12.6
2023-03-17T12:44:01.128Z,12.6
2023-03-17T12:45:03.752Z,12.7
2023-03-17T12:46:01.215Z,12.8
2023-03-17T12:47:01.257Z,12.8
2023-03-17T12:48:01.178Z,12.8
2023-03-17T12:49:01.179Z,12.8
2023-03-17T12:50:01.286Z,12.8
2023-03-17T12:51:01.074Z,12.8
2023-03-17T12:52:01.063Z,12.8
2023-03-17T12:53:01.416Z,12.8
2023-03-17T12:54:02.205Z,12.9
2023-03-17T12:55:01.346Z,12.9
2023-03-17T12:56:01.108Z,12.9
2023-03-17T12:57:01.099Z,13
2023-03-17T12:58:01.129Z,13
2023-03-17T12:59:01.110Z,13
2023-03-17T13:00:01.105Z,13
2023-03-17T13:01:01.686Z,13
2023-03-17T13:02:01.208Z,13
2023-03-17T13:03:01.149Z,12.9
2023-03-17T13:04:01.147Z,12.9
2023-03-17T13:05:01.202Z,12.9
2023-03-17T13:06:01.059Z,12.9
2023-03-17T13:07:01.080Z,12.9
2023-03-17T13:08:01.180Z,12.9
2023-03-17T13:09:01.525Z,12.9
2023-03-17T13:10:01.175Z,12.9
2023-03-17T13:11:02.522Z,13
2023-03-17T13:12:01.101Z,13
2023-03-17T13:13:03.833Z,13
2023-03-17T13:14:01.112Z,13
2023-03-17T13:15:02.104Z,13
2023-03-17T13:16:00.829Z,13
2023-03-17T13:17:00.521Z,13.1
2023-03-17T13:18:04.634Z,13.1
2023-03-17T13:19:01.171Z,13.1
2023-03-17T13:20:01.161Z,13.1
2023-03-17T13:21:01.364Z,13.1
2023-03-17T13:22:01.955Z,13.1
2023-03-17T13:23:06.806Z,13.1
2023-03-17T13:24:01.074Z,13.1
2023-03-17T13:25:01.066Z,13.1
2023-03-17T13:26:01.083Z,13.1
2023-03-17T13:27:01.086Z,13.2
2023-03-17T13:28:10.507Z,13.2
2023-03-17T13:29:01.190Z,13.2
2023-03-17T13:30:01.496Z,13.2
2023-03-17T13:31:04.115Z,13.2
2023-03-17T13:32:02.324Z,13.2
2023-03-17T13:33:15.159Z,13.3
2023-03-17T13:34:01.237Z,13.3
2023-03-17T13:35:01.528Z,13.3
2023-03-17T13:36:02.015Z,13.3
2023-03-17T13:37:01.211Z,13.3
2023-03-17T13:38:15.657Z,13.3
2023-03-17T13:39:18.353Z,13.3
2023-03-17T13:40:01.630Z,13.2
2023-03-17T13:41:02.069Z,13.3
2023-03-17T13:42:11.928Z,13.2
2023-03-17T13:43:01.422Z,13.3
2023-03-17T13:44:02.112Z,13.2
2023-03-17T13:45:05.080Z,13.2
2023-03-17T13:46:01.110Z,13.2
2023-03-17T13:47:01.178Z,13.2